Summit, North Carolina
Current Conditions -  °F | °C
As of 6:54 PM on Wednesday 22 Oct 2014 (Local Time) from KGSO Reporting Station
Clear Clear  
Wind Chill: 55°   Ceiling: Unl
Heat Index: 55°   Visibility: 10mi
Dew Point: 39°   Wind: 8mph
Humidity: 55%   Direction: 320°NW
Pressure: 30.03"   Gusts: NA
Location:  36.1157°N, 79.7378°W
Report Text: KGSO 222254Z 32007KT 10SM CLR 13/04 A3003 RMK AO2 SLP168 T01280039
Loading
Personal Weather Stations






























Interactive Weather Map
Tropical Storm Tracking
New forecast layout! Learn more

10-Day Weather Forecast

Advertisements
Track Severe Weather on mobile